METAR Data
IDs: Format: Raw Decoded Include TAF

Data at: 1358 UTC 09 Dec 2019

K2M2 091355Z AUTO 19010G18KT 10SM BKN011 OVC016 14/12 A2987 RMK A01
K2M2 091335Z AUTO 18010KT 10SM OVC011 14/12 A2987 RMK A01
K2M2 091315Z AUTO 18008KT 150V210 10SM OVC010 14/12 A2987 RMK A01
K2M2 091255Z AUTO 17009KT 10SM OVC010 14/11 A2987 RMK A01
K2M2 091235Z AUTO 17008G14KT 10SM OVC011 13/11 A2987 RMK A01
K2M2 091215Z AUTO 18009G16KT 150V210 10SM OVC012 13/11 A2988 RMK A01
K2M2 091155Z AUTO 17008G15KT 140V200 10SM OVC013 13/11 A2988 RMK A01
K2M2 091135Z AUTO 17009KT 10SM OVC014 14/11 A2989 RMK A01
K2M2 091115Z AUTO 17005G13KT 10SM OVC014 14/10 A2990 RMK A01
K2M2 091055Z AUTO 18008G18KT 140V210 10SM OVC014 14/10 A2990 RMK A01
K2M2 091035Z AUTO 17010G16KT 140V200 10SM OVC015 13/10 A2990 RMK A01
K2M2 091015Z AUTO 17010G15KT 150V210 10SM OVC016 13/10 A2990 RMK A01
K2M2 090955Z AUTO 16013KT 10SM OVC016 13/10 A2990 RMK A01
K2M2 090935Z AUTO 17010G15KT 10SM OVC016 13/10 A2990 RMK A01
K2M2 090915Z AUTO 15011KT 10SM OVC017 13/10 A2991 RMK A01
K2M2 090855Z AUTO 17011G17KT 10SM OVC017 13/09 A2992 RMK A01
K2M2 090835Z AUTO 16014G20KT 10SM OVC017 13/09 A2992 RMK A01
K2M2 090815Z AUTO 16011KT 10SM OVC017 13/09 A2992 RMK A01
K2M2 090755Z AUTO 16013G19KT 10SM OVC016 13/10 A2993 RMK A01
K2M2 090735Z AUTO 16010G16KT 140V200 10SM OVC016 13/10 A2994 RMK A01
K2M2 090715Z AUTO 17011G18KT 10SM OVC016 13/09 A2994 RMK A01
K2M2 090655Z AUTO 16011G17KT 10SM OVC018 13/09 A2995 RMK A01
K2M2 090635Z AUTO 16013KT 10SM OVC020 13/08 A2996 RMK A01
K2M2 090615Z AUTO 15013G18KT 10SM OVC020 13/09 A2996 RMK A01
K2M2 090555Z AUTO 16014G22KT 10SM OVC020 14/08 A2998 RMK A01
K2M2 090535Z AUTO 16012G17KT 10SM OVC020 14/08 A2999 RMK A01
K2M2 090515Z AUTO 16011G17KT 10SM OVC022 14/08 A2999 RMK A01
K2M2 090455Z AUTO 17010G17KT 150V210 10SM OVC022 14/07 A2999 RMK A01
K2M2 090435Z AUTO 15012KT 10SM OVC022 14/07 A2999 RMK A01
K2M2 090415Z AUTO 16013KT 10SM OVC023 14/07 A2999 RMK A01
K2M2 090355Z AUTO 16011G21KT 10SM OVC024 14/07 A3000 RMK A01
K2M2 090335Z AUTO 16012G19KT 10SM BKN024 BKN032 OVC040 14/07 A2999 RMK A01
K2M2 090315Z AUTO 15014G20KT 10SM BKN029 OVC033 14/08 A2998 RMK A01
K2M2 090255Z AUTO 15016G23KT 10SM BKN027 OVC034 14/08 A2998 RMK A01
K2M2 090235Z AUTO 16016G21KT 10SM SCT028 OVC034 14/08 A2999 RMK A01
K2M2 090215Z AUTO 16015G24KT 10SM BKN030 OVC036 14/07 A2998 RMK A01
K2M2 090155Z AUTO 16015KT 10SM BKN030 OVC035 14/07 A3000 RMK A01
K2M2 090135Z AUTO 15017KT 10SM OVC030 14/07 A3001 RMK A01
K2M2 090115Z AUTO 15011G17KT 10SM OVC032 14/07 A3002 RMK A01
K2M2 090055Z AUTO 15010KT 10SM OVC033 14/07 A3003 RMK A01
K2M2 090035Z AUTO 15010G15KT 10SM OVC034 14/07 A3004 RMK A01
K2M2 090015Z AUTO 15010G16KT 10SM OVC034 14/07 A3004 RMK A01
K2M2 082355Z AUTO 15009KT 10SM OVC033 14/07 A3003 RMK A01
K2M2 082335Z AUTO 16009KT 10SM OVC033 14/07 A3004 RMK A01
K2M2 082315Z AUTO 15010KT 10SM OVC033 14/07 A3003 RMK A01
K2M2 082255Z AUTO 14009KT 10SM OVC032 14/07 A3003 RMK A01
K2M2 082235Z AUTO 15008KT 10SM OVC033 14/07 A3003 RMK A01
K2M2 082215Z AUTO 15009KT 10SM OVC034 15/07 A3004 RMK A01
K2M2 082155Z AUTO 15009KT 10SM OVC035 15/07 A3004 RMK A01
K2M2 082135Z AUTO 15006KT 10SM OVC035 15/07 A3005 RMK A01
K2M2 082115Z AUTO 15008KT 10SM OVC034 15/07 A3006 RMK A01
K2M2 082055Z AUTO 16008G14KT 10SM OVC033 15/07 A3006 RMK A01
K2M2 082035Z AUTO 16010G18KT 10SM BKN035 BKN050 OVC060 15/07 A3007 RMK A01
K2M2 082015Z AUTO 18009G15KT 10SM BKN035 OVC065 15/07 A3007 RMK A01
K2M2 081955Z AUTO 17012G17KT 150V210 10SM BKN035 OVC042 15/06 A3007 RMK A01
K2M2 081935Z AUTO 15016KT 10SM BKN036 BKN050 OVC065 16/07 A3006 RMK A01
K2M2 081915Z AUTO 17007KT 130V210 10SM SCT032 BKN040 OVC065 16/07 A3008 RMK A01
K2M2 081855Z AUTO VRB06G13KT 10SM OVC033 15/07 A3010 RMK A01
K2M2 081835Z AUTO 16012G18KT 10SM BKN031 BKN036 OVC042 15/07 A3009 RMK A01
K2M2 081815Z AUTO 15014KT 10SM SCT031 BKN044 OVC060 15/07 A3010 RMK A01
K2M2 081755Z AUTO 17011G18KT 10SM SCT036 OVC045 15/07 A3012 RMK A01
K2M2 081735Z AUTO 15012KT 10SM OVC036 15/07 A3012 RMK A01
K2M2 081715Z AUTO 16014KT 10SM OVC032 15/07 A3014 RMK A01
K2M2 081655Z AUTO 16012G20KT 10SM BKN034 BKN041 OVC060 14/06 A3016 RMK A01
K2M2 081635Z AUTO 16012G21KT 10SM SCT036 OVC055 14/06 A3016 RMK A01
K2M2 081615Z AUTO 16010G20KT 10SM FEW034 BKN055 13/06 A3017 RMK A01
K2M2 081555Z AUTO 17010G18KT 10SM BKN033 BKN045 OVC055 13/06 A3019 RMK A01
K2M2 081535Z AUTO 17013G21KT 150V210 10SM FEW031 FEW045 BKN050 13/06 A3019 RMK A01
K2M2 081515Z AUTO 16013G22KT 10SM BKN050 12/06 A3019 RMK A01
K2M2 081455Z AUTO 16008G15KT 140V210 10SM FEW045 OVC050 12/06 A3020 RMK A01
K2M2 081435Z AUTO 15010KT 10SM FEW044 BKN050 11/06 A3020 RMK A01
K2M2 081415Z AUTO 15012KT 10SM BKN050 11/06 A3019 RMK A01
K2M2 081355Z AUTO 15010KT 10SM OVC050 10/06 A3019 RMK A01
K2M2 081335Z AUTO 14010KT 10SM OVC050 10/06 A3019 RMK A01
K2M2 081315Z AUTO 15009KT 10SM OVC050 09/06 A3019 RMK A01
K2M2 081255Z AUTO 15007KT 10SM OVC050 09/06 A3020 RMK A01
K2M2 081235Z AUTO 14007KT 10SM OVC049 09/06 A3019 RMK A01
K2M2 081215Z AUTO 15005KT 10SM OVC049 09/06 A3019 RMK A01
K2M2 081155Z AUTO 15006KT 10SM OVC048 09/06 A3018 RMK A01
K2M2 081135Z AUTO 15007KT 10SM OVC048 09/05 A3018 RMK A01
K2M2 081115Z AUTO 16007KT 10SM OVC047 09/06 A3019 RMK A01
K2M2 081055Z AUTO 15008KT 10SM OVC047 09/06 A3018 RMK A01
K2M2 081035Z AUTO 14005KT 9SM OVC047 06/04 A3018 RMK A01
K2M2 081015Z AUTO 00000KT 5SM BR OVC046 05/04 A3017 RMK A01
K2M2 080955Z AUTO 00000KT 4SM BR OVC045 04/04 A3017 RMK A01
K2M2 080935Z AUTO 00000KT 6SM BR BKN044 03/03 A3017 RMK A01
K2M2 080915Z AUTO 09003KT 6SM BR SCT044 04/03 A3017 RMK A01
K2M2 080855Z AUTO 10004KT 6SM BR SCT045 04/03 A3018 RMK A01
K2M2 080835Z AUTO 09004KT 8SM SCT045 05/04 A3018 RMK A01
K2M2 080815Z AUTO 10004KT 8SM FEW045 05/04 A3019 RMK A01
K2M2 080755Z AUTO 10005KT 8SM FEW046 05/04 A3019 RMK A01
K2M2 080735Z AUTO 00000KT 6SM BR SCT045 04/04 A3020 RMK A01
K2M2 080715Z AUTO 13004KT 6SM BR 05/04 A3020 RMK A01
K2M2 080655Z AUTO 12003KT 6SM BR 04/03 A3021 RMK A01
K2M2 080635Z AUTO 00000KT 6SM BR SCT046 05/04 A3021 RMK A01
K2M2 080615Z AUTO 00000KT 7SM CLR 05/04 A3021 RMK A01
K2M2 080555Z AUTO 00000KT 6SM BR CLR 04/03 A3020 RMK A01
K2M2 080535Z AUTO 00000KT 7SM CLR 03/02 A3021 RMK A01
K2M2 080515Z AUTO 00000KT 8SM FEW042 05/04 A3022 RMK A01
K2M2 080455Z AUTO 00000KT 7SM SCT040 SCT046 05/04 A3022 RMK A01
K2M2 080435Z AUTO 00000KT 8SM OVC039 05/04 A3022 RMK A01
K2M2 080415Z AUTO 00000KT 10SM BKN038 BKN044 06/04 A3023 RMK A01
K2M2 080355Z AUTO 00000KT 10SM BKN038 BKN044 05/04 A3023 RMK A01
K2M2 080335Z AUTO 00000KT 10SM OVC038 05/04 A3023 RMK A01
K2M2 080315Z AUTO 00000KT 9SM BKN040 05/04 A3024 RMK A01
K2M2 080255Z AUTO 00000KT 10SM BKN040 07/05 A3024 RMK A01
K2M2 080235Z AUTO 00000KT 8SM FEW042 07/05 A3025 RMK A01
K2M2 080215Z AUTO 00000KT 10SM FEW038 07/05 A3024 RMK A01